createdAt,value
2019-05-26T00:01:29.491Z,8.51
2019-05-26T00:03:56.924Z,8.38
2019-05-26T00:06:25.339Z,8.42
2019-05-26T00:08:52.666Z,8.32
2019-05-26T00:11:20.212Z,8.32
2019-05-26T00:13:47.510Z,8.29
2019-05-26T00:16:14.881Z,8.36
2019-05-26T00:18:42.413Z,8.33
2019-05-26T00:21:09.702Z,8.47
2019-05-26T00:23:37.069Z,8.49
2019-05-26T00:26:04.472Z,8.55
2019-05-26T00:28:31.891Z,8.42
2019-05-26T00:30:59.191Z,8.31
2019-05-26T00:33:26.512Z,8.20
2019-05-26T00:35:53.865Z,8.26
2019-05-26T00:38:21.253Z,8.15
2019-05-26T00:40:48.483Z,8.15
2019-05-26T00:43:16.091Z,8.28
2019-05-26T00:45:43.885Z,8.13
2019-05-26T00:48:11.197Z,8.29
2019-05-26T00:50:38.466Z,8.26
2019-05-26T00:53:05.851Z,8.27
2019-05-26T00:55:33.150Z,8.28
2019-05-26T00:58:00.686Z,8.35
2019-05-26T01:00:37.819Z,8.37
2019-05-26T01:03:05.448Z,8.41
2019-05-26T01:05:33.146Z,8.63
2019-05-26T01:08:06.372Z,8.84
2019-05-26T01:10:30.107Z,8.93
2019-05-26T01:12:58.690Z,9.11
2019-05-26T01:15:26.066Z,9.13
2019-05-26T01:17:53.362Z,9.04
2019-05-26T01:20:20.638Z,8.99
2019-05-26T01:22:47.907Z,8.92
2019-05-26T01:25:15.630Z,8.79
2019-05-26T01:27:42.918Z,8.88
2019-05-26T01:30:10.385Z,8.76
2019-05-26T01:32:37.738Z,8.76
2019-05-26T01:35:05.324Z,8.63
2019-05-26T01:37:32.801Z,8.64
2019-05-26T01:40:00.059Z,8.74
2019-05-26T01:42:28.044Z,8.87
2019-05-26T01:44:55.348Z,8.71
2019-05-26T01:47:22.629Z,8.76
2019-05-26T01:49:49.898Z,8.87
2019-05-26T01:52:17.183Z,8.89
2019-05-26T01:54:44.423Z,8.84
2019-05-26T01:57:11.743Z,8.95
2019-05-26T01:59:38.989Z,9.11
2019-05-26T02:02:06.304Z,9.20
2019-05-26T02:04:33.690Z,9.36
2019-05-26T02:07:00.936Z,9.54
2019-05-26T02:09:28.348Z,9.63
2019-05-26T02:11:55.631Z,9.84
2019-05-26T02:14:22.905Z,10.02
2019-05-26T02:16:50.231Z,10.17
2019-05-26T02:19:17.512Z,10.24
2019-05-26T02:21:45.829Z,10.31
2019-05-26T02:24:13.075Z,10.40
2019-05-26T02:26:40.323Z,10.50
2019-05-26T02:29:07.639Z,10.59
2019-05-26T02:31:34.962Z,10.67
2019-05-26T02:34:02.270Z,10.79
2019-05-26T02:36:29.532Z,10.80
2019-05-26T02:39:02.758Z,10.84
2019-05-26T02:41:25.978Z,10.87
2019-05-26T02:43:53.234Z,10.91
2019-05-26T02:46:20.731Z,10.95
2019-05-26T02:48:47.983Z,11.00
2019-05-26T02:51:15.236Z,11.03
2019-05-26T02:53:42.546Z,11.02
2019-05-26T02:56:10.068Z,11.05
2019-05-26T02:58:37.330Z,10.99
2019-05-26T03:01:04.550Z,11.08
2019-05-26T03:03:31.932Z,11.10
2019-05-26T03:05:59.407Z,11.08
2019-05-26T03:08:27.465Z,11.07
2019-05-26T03:10:57.030Z,11.11
2019-05-26T03:13:25.675Z,11.05
2019-05-26T03:15:54.765Z,11.08
2019-05-26T03:18:22.038Z,11.10
2019-05-26T03:20:49.446Z,11.06
2019-05-26T03:23:16.730Z,11.02
2019-05-26T03:25:43.972Z,10.97
2019-05-26T03:28:11.241Z,10.98
2019-05-26T03:30:38.511Z,10.96
2019-05-26T03:33:05.841Z,10.95
2019-05-26T03:35:33.158Z,10.97
2019-05-26T03:38:00.525Z,10.90
2019-05-26T03:40:27.808Z,10.97
2019-05-26T03:42:55.066Z,10.99
2019-05-26T03:45:24.807Z,11.03
2019-05-26T03:47:52.072Z,11.03
2019-05-26T03:50:19.367Z,11.09
2019-05-26T03:52:46.659Z,11.03
2019-05-26T03:55:13.912Z,11.13
2019-05-26T03:57:41.161Z,11.23
2019-05-26T04:00:08.446Z,11.35
2019-05-26T04:02:35.832Z,11.45
2019-05-26T04:05:03.826Z,11.40
2019-05-26T04:07:31.207Z,11.44
2019-05-26T04:10:05.223Z,11.52
2019-05-26T04:12:27.657Z,11.52
2019-05-26T04:14:54.879Z,11.54
2019-05-26T04:17:22.119Z,11.59
2019-05-26T04:19:49.382Z,11.70
2019-05-26T04:22:16.630Z,11.69
2019-05-26T04:24:43.883Z,11.74
2019-05-26T04:27:11.246Z,11.73
2019-05-26T04:29:39.506Z,11.81
2019-05-26T04:32:06.772Z,11.79
2019-05-26T04:34:34.058Z,11.88
2019-05-26T04:37:01.337Z,11.85
2019-05-26T04:39:28.723Z,11.87
2019-05-26T04:41:56.009Z,12.01
2019-05-26T04:44:24.278Z,11.93
2019-05-26T04:46:51.542Z,11.90
2019-05-26T04:49:18.794Z,12.02
2019-05-26T04:51:46.043Z,12.11
2019-05-26T04:54:13.339Z,12.11
2019-05-26T04:56:40.841Z,12.21
2019-05-26T04:59:09.336Z,12.36
2019-05-26T05:01:37.325Z,12.53
2019-05-26T05:04:04.613Z,12.69
2019-05-26T05:06:32.859Z,12.77
2019-05-26T05:09:00.559Z,12.91
2019-05-26T05:11:27.869Z,13.03
2019-05-26T05:13:55.210Z,13.11
2019-05-26T05:16:22.595Z,13.25
2019-05-26T05:18:49.934Z,13.44
2019-05-26T05:21:17.269Z,13.67
2019-05-26T05:23:44.530Z,13.74
2019-05-26T05:26:11.773Z,13.79
2019-05-26T05:28:39.043Z,14.03
2019-05-26T05:31:06.343Z,13.80
2019-05-26T05:33:33.651Z,13.92
2019-05-26T05:36:00.890Z,14.12
2019-05-26T05:38:28.228Z,14.29
2019-05-26T05:40:59.961Z,14.52
2019-05-26T05:43:25.741Z,14.59
2019-05-26T05:45:53.030Z,14.24
2019-05-26T05:48:20.323Z,14.17
2019-05-26T05:50:47.576Z,14.03
2019-05-26T05:53:14.835Z,13.84
2019-05-26T05:55:42.355Z,14.08
2019-05-26T05:58:09.808Z,13.98
2019-05-26T06:00:37.163Z,14.00
2019-05-26T06:03:04.416Z,14.05
2019-05-26T06:05:31.984Z,14.27
2019-05-26T06:07:59.406Z,14.48
2019-05-26T06:10:26.750Z,14.64
2019-05-26T06:12:54.188Z,14.69
2019-05-26T06:15:21.529Z,14.99
2019-05-26T06:17:48.944Z,15.34
2019-05-26T06:20:16.329Z,15.59
2019-05-26T06:22:43.591Z,15.99
2019-05-26T06:25:10.893Z,16.05
2019-05-26T06:27:38.254Z,16.15
2019-05-26T06:30:05.748Z,16.16
2019-05-26T06:32:33.011Z,15.97
2019-05-26T06:35:00.290Z,16.31
2019-05-26T06:37:27.570Z,16.34
2019-05-26T06:39:54.795Z,16.66
2019-05-26T06:42:22.072Z,16.87
2019-05-26T06:44:53.690Z,17.09
2019-05-26T06:47:18.466Z,17.57
2019-05-26T06:49:45.794Z,17.72
2019-05-26T06:52:13.100Z,17.81
2019-05-26T06:54:40.368Z,17.71
2019-05-26T06:57:07.901Z,17.79
2019-05-26T06:59:35.165Z,18.18
2019-05-26T07:02:02.427Z,17.83
2019-05-26T07:04:29.688Z,18.12
2019-05-26T07:06:56.937Z,18.28
2019-05-26T07:09:24.293Z,18.54
2019-05-26T07:11:59.071Z,18.70
2019-05-26T07:14:20.718Z,18.77
2019-05-26T07:16:47.978Z,18.98
2019-05-26T07:19:15.217Z,18.95
2019-05-26T07:21:42.536Z,18.58
2019-05-26T07:24:09.809Z,18.71
2019-05-26T07:26:38.073Z,18.60
2019-05-26T07:29:05.328Z,18.54
2019-05-26T07:31:32.636Z,18.56
2019-05-26T07:33:59.877Z,19.12
2019-05-26T07:36:27.171Z,19.29
2019-05-26T07:38:54.435Z,19.69
2019-05-26T07:41:21.728Z,19.65
2019-05-26T07:43:49.013Z,19.43
2019-05-26T07:46:16.287Z,18.93
2019-05-26T07:48:43.565Z,18.93
2019-05-26T07:51:11.034Z,18.90
2019-05-26T07:53:38.310Z,18.92
2019-05-26T07:56:05.899Z,19.30
2019-05-26T07:58:33.272Z,19.12
2019-05-26T08:01:00.535Z,18.84
2019-05-26T08:03:27.809Z,18.88
2019-05-26T08:05:55.672Z,18.38
2019-05-26T08:08:23.054Z,18.22
2019-05-26T08:10:50.430Z,18.43
2019-05-26T08:13:26.450Z,18.82
2019-05-26T08:15:53.945Z,18.73
2019-05-26T08:18:29.302Z,18.84
2019-05-26T08:20:56.719Z,19.23
2019-05-26T08:23:24.069Z,19.61
2019-05-26T08:25:51.475Z,19.72
2019-05-26T08:28:18.918Z,20.11
2019-05-26T08:30:46.323Z,20.31
2019-05-26T08:33:13.677Z,20.54
2019-05-26T08:35:41.138Z,20.35
2019-05-26T08:38:08.721Z,20.35
2019-05-26T08:40:36.161Z,20.49
2019-05-26T08:43:03.766Z,20.54
2019-05-26T08:45:31.042Z,20.66
2019-05-26T08:48:00.500Z,20.92
2019-05-26T08:50:27.835Z,20.55
2019-05-26T08:52:55.254Z,20.57
2019-05-26T08:55:22.623Z,20.67
2019-05-26T08:57:49.979Z,21.04
2019-05-26T09:00:17.557Z,22.06
2019-05-26T09:02:44.853Z,22.31
2019-05-26T09:05:13.582Z,23.08
2019-05-26T09:07:41.412Z,22.97
2019-05-26T09:10:09.325Z,22.80
2019-05-26T09:12:36.774Z,22.68
2019-05-26T09:15:05.802Z,22.25
2019-05-26T09:17:33.240Z,21.83
2019-05-26T09:20:00.527Z,21.42
2019-05-26T09:22:27.766Z,20.99
2019-05-26T09:24:55.079Z,20.66
2019-05-26T09:27:22.314Z,21.09
2019-05-26T09:29:49.721Z,21.70
2019-05-26T09:32:17.247Z,21.93
2019-05-26T09:34:44.856Z,21.86
2019-05-26T09:37:12.181Z,22.30
2019-05-26T09:39:39.545Z,21.87
2019-05-26T09:42:06.852Z,21.52
2019-05-26T09:44:34.144Z,21.76
2019-05-26T09:47:02.605Z,21.33
2019-05-26T09:49:29.977Z,21.05
2019-05-26T09:51:58.347Z,21.23
2019-05-26T09:54:25.608Z,21.41
2019-05-26T09:56:52.854Z,21.70
2019-05-26T09:59:20.112Z,22.00
2019-05-26T10:01:47.423Z,22.39
2019-05-26T10:04:15.693Z,22.32
2019-05-26T10:06:43.116Z,22.11
2019-05-26T10:09:10.372Z,21.92
2019-05-26T10:11:37.715Z,22.55
2019-05-26T10:14:05.099Z,22.94
2019-05-26T10:16:32.444Z,23.14
2019-05-26T10:18:59.824Z,22.85
2019-05-26T10:21:27.075Z,22.94
2019-05-26T10:23:54.406Z,23.01
2019-05-26T10:26:21.755Z,23.29
2019-05-26T10:28:49.035Z,23.64
2019-05-26T10:31:16.286Z,23.92
2019-05-26T10:33:43.583Z,23.36
2019-05-26T10:36:10.862Z,23.82
2019-05-26T10:38:38.078Z,24.28
2019-05-26T10:41:05.456Z,23.96
2019-05-26T10:43:46.416Z,24.17
2019-05-26T10:46:03.026Z,23.85
2019-05-26T10:48:30.305Z,24.11
2019-05-26T10:50:57.593Z,23.68
2019-05-26T10:53:24.894Z,23.92
2019-05-26T10:55:52.161Z,23.81
2019-05-26T10:58:19.676Z,23.42
2019-05-26T11:00:48.304Z,23.51
2019-05-26T11:03:16.945Z,23.43
2019-05-26T11:05:46.134Z,23.09
2019-05-26T11:08:16.539Z,23.25
2019-05-26T11:10:44.237Z,23.29
2019-05-26T11:13:11.807Z,23.42
2019-05-26T11:15:39.224Z,23.83
2019-05-26T11:18:06.597Z,24.41
2019-05-26T11:20:33.843Z,24.11
2019-05-26T11:23:01.111Z,24.51
2019-05-26T11:25:28.468Z,25.13
2019-05-26T11:27:55.722Z,24.59
2019-05-26T11:30:23.097Z,24.45
2019-05-26T11:32:50.384Z,24.42
2019-05-26T11:35:19.458Z,24.29
2019-05-26T11:37:46.760Z,24.36
2019-05-26T11:40:15.675Z,25.38
2019-05-26T11:42:45.068Z,25.01
2019-05-26T11:45:12.370Z,24.68
2019-05-26T11:47:39.654Z,24.29
2019-05-26T11:50:07.291Z,23.02
2019-05-26T11:52:34.541Z,22.85
2019-05-26T11:55:01.909Z,23.45
2019-05-26T11:57:29.404Z,23.76
2019-05-26T11:59:56.851Z,24.20
2019-05-26T12:02:26.288Z,24.06
2019-05-26T12:04:56.824Z,24.16
2019-05-26T12:07:26.610Z,24.58
2019-05-26T12:09:57.318Z,23.98
2019-05-26T12:12:24.983Z,23.83
2019-05-26T12:14:52.304Z,24.41
2019-05-26T12:17:19.792Z,25.08
2019-05-26T12:19:47.053Z,24.79
2019-05-26T12:22:14.334Z,24.56
2019-05-26T12:24:41.674Z,24.16
2019-05-26T12:27:08.962Z,24.34
2019-05-26T12:29:36.682Z,24.12
2019-05-26T12:32:05.063Z,24.23
2019-05-26T12:34:32.342Z,24.71
2019-05-26T12:36:59.593Z,24.58
2019-05-26T12:39:26.838Z,25.18
2019-05-26T12:41:54.196Z,25.80
2019-05-26T12:44:22.047Z,25.52
2019-05-26T12:46:49.719Z,24.98
2019-05-26T12:49:17.079Z,24.74
2019-05-26T12:51:44.410Z,24.78
2019-05-26T12:54:11.662Z,24.88
2019-05-26T12:56:38.909Z,26.33
2019-05-26T12:59:06.163Z,26.14
2019-05-26T13:01:33.474Z,26.14
2019-05-26T13:04:00.719Z,26.62
2019-05-26T13:06:28.112Z,26.59
2019-05-26T13:08:55.559Z,25.86
2019-05-26T13:11:23.030Z,25.70
2019-05-26T13:13:50.270Z,25.81
2019-05-26T13:16:17.551Z,25.72
2019-05-26T13:18:44.784Z,26.51
2019-05-26T13:21:12.419Z,26.51
2019-05-26T13:23:39.797Z,26.26
2019-05-26T13:26:07.157Z,26.45
2019-05-26T13:28:34.519Z,26.90
2019-05-26T13:31:01.990Z,26.83
2019-05-26T13:33:29.250Z,27.18
2019-05-26T13:35:57.796Z,26.82
2019-05-26T13:38:25.243Z,26.68
2019-05-26T13:40:52.542Z,26.55
2019-05-26T13:43:19.804Z,26.52
2019-05-26T13:45:47.172Z,25.74
2019-05-26T13:48:14.679Z,25.74
2019-05-26T13:50:41.990Z,25.91
2019-05-26T13:53:09.237Z,26.38
2019-05-26T13:55:36.976Z,26.53
2019-05-26T13:58:04.501Z,26.35
2019-05-26T14:00:31.934Z,25.95
2019-05-26T14:02:59.170Z,25.77
2019-05-26T14:05:26.448Z,25.41
2019-05-26T14:07:54.093Z,25.92
2019-05-26T14:10:34.660Z,26.08
2019-05-26T14:13:01.895Z,25.10
2019-05-26T14:15:38.198Z,25.75
2019-05-26T14:17:59.703Z,27.20
2019-05-26T14:20:35.666Z,27.20
2019-05-26T14:23:03.154Z,27.39
2019-05-26T14:25:30.383Z,27.47
2019-05-26T14:27:57.652Z,27.61
2019-05-26T14:30:24.905Z,26.84
2019-05-26T14:32:52.278Z,26.42
2019-05-26T14:35:19.501Z,26.06
2019-05-26T14:38:04.190Z,25.24
2019-05-26T14:40:41.442Z,24.76
2019-05-26T14:43:28.884Z,24.96
2019-05-26T14:46:15.576Z,24.58
2019-05-26T14:48:56.963Z,24.69
2019-05-26T14:51:58.757Z,25.14
2019-05-26T14:54:45.101Z,25.92
2019-05-26T14:57:15.234Z,25.84
2019-05-26T14:59:45.465Z,26.00
2019-05-26T15:02:13.317Z,25.68
2019-05-26T15:04:41.190Z,25.23
2019-05-26T15:07:08.597Z,25.23
2019-05-26T15:09:41.398Z,24.78
2019-05-26T15:12:23.596Z,24.82
2019-05-26T15:14:59.342Z,24.68
2019-05-26T15:17:39.786Z,24.17
2019-05-26T15:20:24.138Z,23.86
2019-05-26T15:22:55.261Z,23.21
2019-05-26T15:25:29.397Z,22.85
2019-05-26T15:28:01.715Z,22.56
2019-05-26T15:30:36.451Z,22.07
2019-05-26T15:33:18.051Z,21.54
2019-05-26T15:35:56.610Z,21.28
2019-05-26T15:38:57.762Z,21.12
2019-05-26T15:41:47.298Z,20.80
2019-05-26T15:44:23.924Z,20.73
2019-05-26T15:47:00.050Z,20.82
2019-05-26T15:49:31.397Z,20.99
2019-05-26T15:52:07.892Z,21.02
2019-05-26T15:54:38.036Z,21.09
2019-05-26T15:57:11.421Z,21.21
2019-05-26T16:00:07.434Z,21.50
2019-05-26T16:03:00.614Z,21.63
2019-05-26T16:05:32.967Z,21.79
2019-05-26T16:08:12.604Z,22.05
2019-05-26T16:10:50.472Z,22.33
2019-05-26T16:13:30.046Z,22.75
2019-05-26T16:16:10.323Z,22.85
2019-05-26T16:18:51.878Z,23.04
2019-05-26T16:21:38.101Z,22.88
2019-05-26T16:24:20.596Z,22.48
2019-05-26T16:27:00.282Z,22.46
2019-05-26T16:29:40.588Z,22.58
2019-05-26T16:32:13.594Z,22.35
2019-05-26T16:34:48.937Z,22.41
2019-05-26T16:37:22.192Z,22.29
2019-05-26T16:40:20.438Z,21.83
2019-05-26T16:43:04.537Z,21.55
2019-05-26T16:45:55.320Z,21.47
2019-05-26T16:48:18.156Z,21.39
2019-05-26T16:50:57.201Z,21.59
2019-05-26T16:53:37.052Z,21.82
2019-05-26T16:56:11.899Z,22.29
2019-05-26T16:58:47.966Z,22.61
2019-05-26T17:01:25.654Z,22.49
2019-05-26T17:03:57.488Z,22.49
2019-05-26T17:06:48.063Z,22.42
2019-05-26T17:09:21.018Z,22.19
2019-05-26T17:11:56.754Z,22.48
2019-05-26T17:14:38.278Z,22.76
2019-05-26T17:17:14.657Z,22.74
2019-05-26T17:19:44.394Z,22.54
2019-05-26T17:22:18.266Z,22.24
2019-05-26T17:24:49.577Z,22.19
2019-05-26T17:27:24.300Z,21.99
2019-05-26T17:30:02.438Z,21.81
2019-05-26T17:32:47.273Z,21.59
2019-05-26T17:35:22.232Z,21.45
2019-05-26T17:38:16.591Z,21.06
2019-05-26T17:40:57.361Z,21.12
2019-05-26T17:43:36.329Z,21.06
2019-05-26T17:46:15.190Z,20.96
2019-05-26T17:48:49.600Z,21.01
2019-05-26T17:51:26.902Z,21.23
2019-05-26T17:54:02.537Z,21.44
2019-05-26T17:56:33.326Z,21.22
2019-05-26T18:02:16.538Z,21.01
2019-05-26T18:04:48.310Z,20.84
2019-05-26T18:07:30.305Z,20.55
2019-05-26T18:10:04.661Z,20.65
2019-05-26T18:12:39.258Z,20.58
2019-05-26T18:15:13.606Z,20.61
2019-05-26T18:17:49.962Z,20.64
2019-05-26T18:20:21.292Z,20.65
2019-05-26T18:22:52.075Z,20.68
2019-05-26T18:25:21.352Z,20.92
2019-05-26T18:27:51.078Z,20.83
2019-05-26T18:30:20.471Z,20.82
2019-05-26T18:32:51.300Z,20.51
2019-05-26T18:35:18.907Z,20.53
2019-05-26T18:37:46.179Z,20.50
2019-05-26T18:40:13.510Z,20.44
2019-05-26T18:42:40.860Z,20.39
2019-05-26T18:45:08.255Z,20.35
2019-05-26T18:47:35.529Z,20.45
2019-05-26T18:50:02.872Z,20.55
2019-05-26T18:52:30.285Z,20.39
2019-05-26T18:54:57.552Z,20.54
2019-05-26T18:57:25.039Z,20.38
2019-05-26T18:59:52.280Z,20.32
2019-05-26T19:02:19.567Z,20.48
2019-05-26T19:04:46.860Z,20.23
2019-05-26T19:07:14.118Z,20.06
2019-05-26T19:09:41.395Z,19.88
2019-05-26T19:12:08.856Z,19.83
2019-05-26T19:14:36.354Z,19.80
2019-05-26T19:17:03.732Z,19.76
2019-05-26T19:19:30.983Z,19.67
2019-05-26T19:21:58.285Z,19.56
2019-05-26T19:24:25.601Z,19.50
2019-05-26T19:26:52.935Z,19.32
2019-05-26T19:29:20.227Z,19.16
2019-05-26T19:31:47.730Z,19.13
2019-05-26T19:34:15.191Z,19.06
2019-05-26T19:36:42.566Z,19.02
2019-05-26T19:39:10.708Z,19.00
2019-05-26T19:41:39.478Z,18.82
2019-05-26T19:44:07.748Z,18.79
2019-05-26T19:46:35.069Z,18.90
2019-05-26T19:49:02.353Z,18.86
2019-05-26T19:51:29.602Z,18.94
2019-05-26T19:53:56.895Z,18.88
2019-05-26T19:56:25.281Z,18.73
2019-05-26T19:58:52.675Z,18.76
2019-05-26T20:01:19.952Z,18.76
2019-05-26T20:03:48.372Z,18.87
2019-05-26T20:06:16.812Z,18.92
2019-05-26T20:08:44.198Z,18.94
2019-05-26T20:11:11.506Z,19.06
2019-05-26T20:13:38.844Z,19.05
2019-05-26T20:16:06.227Z,19.03
2019-05-26T20:18:33.792Z,19.05
2019-05-26T20:21:02.210Z,19.11
2019-05-26T20:23:29.441Z,19.01
2019-05-26T20:25:56.769Z,19.07
2019-05-26T20:28:24.113Z,19.11
2019-05-26T20:30:51.349Z,19.07
2019-05-26T20:33:18.654Z,19.05
2019-05-26T20:35:46.058Z,19.10
2019-05-26T20:38:13.321Z,19.03
2019-05-26T20:40:41.563Z,19.15
2019-05-26T20:43:08.847Z,19.02
2019-05-26T20:45:36.212Z,18.92
2019-05-26T20:48:03.480Z,18.97
2019-05-26T20:50:30.808Z,19.00
2019-05-26T20:52:58.250Z,18.85
2019-05-26T20:55:26.589Z,18.91
2019-05-26T20:57:54.060Z,18.86
2019-05-26T21:00:21.374Z,18.90
2019-05-26T21:02:48.946Z,18.71
2019-05-26T21:05:16.735Z,18.69
2019-05-26T21:07:44.237Z,18.68
2019-05-26T21:10:12.670Z,18.60
2019-05-26T21:12:40.532Z,18.60
2019-05-26T21:15:08.808Z,18.52
2019-05-26T21:17:36.328Z,18.44
2019-05-26T21:20:04.622Z,18.41
2019-05-26T21:22:32.205Z,18.46
2019-05-26T21:25:00.185Z,18.42
2019-05-26T21:27:27.509Z,18.38
2019-05-26T21:29:54.799Z,18.20
2019-05-26T21:32:22.207Z,18.17
2019-05-26T21:34:49.473Z,18.23
2019-05-26T21:37:16.739Z,17.84
2019-05-26T21:39:44.007Z,17.73
2019-05-26T21:42:11.225Z,17.85
2019-05-26T21:44:38.461Z,17.75
2019-05-26T21:47:05.762Z,17.61
2019-05-26T21:49:33.401Z,17.63
2019-05-26T21:52:00.676Z,17.58
2019-05-26T21:54:28.000Z,17.62
2019-05-26T21:56:55.304Z,17.51
2019-05-26T21:59:22.564Z,17.44
2019-05-26T22:01:49.837Z,17.58
2019-05-26T22:04:17.101Z,17.58
2019-05-26T22:06:46.055Z,17.63
2019-05-26T22:09:13.305Z,17.78
2019-05-26T22:11:40.893Z,17.69
2019-05-26T22:14:08.129Z,17.59
2019-05-26T22:16:36.048Z,17.58
2019-05-26T22:19:03.301Z,17.59
2019-05-26T22:21:30.542Z,17.56
2019-05-26T22:23:57.827Z,17.41
2019-05-26T22:26:25.054Z,17.38
2019-05-26T22:28:52.370Z,17.34
2019-05-26T22:31:19.648Z,17.56
2019-05-26T22:33:47.085Z,17.55
2019-05-26T22:36:14.309Z,17.40
2019-05-26T22:38:41.612Z,17.30
2019-05-26T22:41:08.908Z,17.24
2019-05-26T22:43:37.563Z,17.38
2019-05-26T22:46:04.784Z,17.37
2019-05-26T22:48:32.063Z,17.30
2019-05-26T22:50:59.319Z,17.27
2019-05-26T22:53:26.572Z,17.16
2019-05-26T22:55:53.854Z,17.20
2019-05-26T22:58:21.090Z,16.96
2019-05-26T23:00:48.625Z,17.04
2019-05-26T23:03:16.810Z,17.03
2019-05-26T23:05:44.540Z,17.02
2019-05-26T23:08:11.904Z,17.06
2019-05-26T23:10:39.160Z,17.01
2019-05-26T23:13:06.381Z,16.94
2019-05-26T23:15:33.672Z,16.88
2019-05-26T23:18:00.900Z,16.97
2019-05-26T23:20:28.181Z,16.85
2019-05-26T23:22:55.454Z,16.81
2019-05-26T23:25:22.669Z,16.80
2019-05-26T23:27:49.984Z,16.71
2019-05-26T23:30:17.261Z,16.73
2019-05-26T23:32:44.603Z,16.63
2019-05-26T23:35:13.842Z,16.57
2019-05-26T23:37:41.214Z,16.64
2019-05-26T23:40:08.534Z,16.55
2019-05-26T23:42:35.936Z,16.50
2019-05-26T23:45:04.723Z,16.48
2019-05-26T23:47:32.213Z,16.52
2019-05-26T23:49:59.619Z,16.62
2019-05-26T23:52:28.059Z,16.69
2019-05-26T23:54:55.454Z,16.66
2019-05-26T23:57:22.747Z,16.66
2019-05-26T23:59:50.063Z,16.57
